sensor_id;sensor_type;location;lat;lon;timestamp;P1;durP1;ratioP1;P2;durP2;ratioP2
46363;SDS011;32071;49.036;9.344;2023-05-10T00:01:55;2.80;;;2.00;;
46363;SDS011;32071;49.036;9.344;2023-05-10T00:04:21;5.30;;;2.43;;
46363;SDS011;32071;49.036;9.344;2023-05-10T00:06:46;2.27;;;1.80;;
46363;SDS011;32071;49.036;9.344;2023-05-10T00:09:12;2.17;;;1.97;;
46363;SDS011;32071;49.036;9.344;2023-05-10T00:11:38;1.77;;;1.67;;
46363;SDS011;32071;49.036;9.344;2023-05-10T00:14:04;2.63;;;1.70;;
46363;SDS011;32071;49.036;9.344;2023-05-10T00:16:29;1.70;;;1.60;;
46363;SDS011;32071;49.036;9.344;2023-05-10T00:18:55;2.00;;;1.80;;
46363;SDS011;32071;49.036;9.344;2023-05-10T00:21:20;2.00;;;1.67;;
46363;SDS011;32071;49.036;9.344;2023-05-10T00:23:46;3.30;;;1.90;;
46363;SDS011;32071;49.036;9.344;2023-05-10T00:26:11;2.10;;;1.90;;
46363;SDS011;32071;49.036;9.344;2023-05-10T00:28:37;2.00;;;1.53;;
46363;SDS011;32071;49.036;9.344;2023-05-10T00:31:03;1.90;;;1.73;;
46363;SDS011;32071;49.036;9.344;2023-05-10T00:33:28;1.63;;;1.53;;
46363;SDS011;32071;49.036;9.344;2023-05-10T00:35:54;1.73;;;1.63;;
46363;SDS011;32071;49.036;9.344;2023-05-10T00:38:20;2.57;;;1.33;;
46363;SDS011;32071;49.036;9.344;2023-05-10T00:40:45;1.80;;;1.70;;
46363;SDS011;32071;49.036;9.344;2023-05-10T00:43:11;1.50;;;1.20;;
46363;SDS011;32071;49.036;9.344;2023-05-10T00:45:37;1.50;;;1.40;;
46363;SDS011;32071;49.036;9.344;2023-05-10T00:48:04;2.53;;;1.50;;
46363;SDS011;32071;49.036;9.344;2023-05-10T00:50:30;7.90;;;1.93;;
46363;SDS011;32071;49.036;9.344;2023-05-10T00:52:57;2.43;;;1.20;;
46363;SDS011;32071;49.036;9.344;2023-05-10T00:55:25;1.23;;;1.13;;
46363;SDS011;32071;49.036;9.344;2023-05-10T00:57:51;1.30;;;1.20;;
46363;SDS011;32071;49.036;9.344;2023-05-10T01:00:18;1.13;;;1.07;;
46363;SDS011;32071;49.036;9.344;2023-05-10T01:02:44;1.10;;;1.10;;
46363;SDS011;32071;49.036;9.344;2023-05-10T01:05:14;1.33;;;1.23;;
46363;SDS011;32071;49.036;9.344;2023-05-10T01:07:40;1.40;;;1.30;;
46363;SDS011;32071;49.036;9.344;2023-05-10T01:10:06;1.10;;;1.10;;
46363;SDS011;32071;49.036;9.344;2023-05-10T01:12:34;1.57;;;1.30;;
46363;SDS011;32071;49.036;9.344;2023-05-10T01:15:02;1.70;;;1.20;;
46363;SDS011;32071;49.036;9.344;2023-05-10T01:17:28;1.63;;;1.07;;
46363;SDS011;32071;49.036;9.344;2023-05-10T01:19:55;1.80;;;1.20;;
46363;SDS011;32071;49.036;9.344;2023-05-10T01:31:03;1.77;;;1.57;;
46363;SDS011;32071;49.036;9.344;2023-05-10T01:36:30;1.40;;;1.30;;
46363;SDS011;32071;49.036;9.344;2023-05-10T01:41:47;4.07;;;1.67;;
46363;SDS011;32071;49.036;9.344;2023-05-10T01:44:20;1.53;;;1.40;;
46363;SDS011;32071;49.036;9.344;2023-05-10T01:46:58;1.60;;;1.50;;
46363;SDS011;32071;49.036;9.344;2023-05-10T01:49:32;1.87;;;1.63;;
46363;SDS011;32071;49.036;9.344;2023-05-10T01:52:09;1.40;;;1.30;;
46363;SDS011;32071;49.036;9.344;2023-05-10T01:54:38;1.60;;;1.50;;
46363;SDS011;32071;49.036;9.344;2023-05-10T01:57:09;1.90;;;1.80;;
46363;SDS011;32071;49.036;9.344;2023-05-10T01:59:39;1.63;;;1.53;;
46363;SDS011;32071;49.036;9.344;2023-05-10T02:02:08;1.80;;;1.70;;
46363;SDS011;32071;49.036;9.344;2023-05-10T02:04:37;1.77;;;1.67;;
46363;SDS011;32071;49.036;9.344;2023-05-10T02:07:05;1.60;;;1.50;;
46363;SDS011;32071;49.036;9.344;2023-05-10T02:09:32;1.40;;;1.30;;
46363;SDS011;32071;49.036;9.344;2023-05-10T02:11:59;1.70;;;1.60;;
46363;SDS011;32071;49.036;9.344;2023-05-10T02:14:27;1.63;;;1.53;;
46363;SDS011;32071;49.036;9.344;2023-05-10T02:16:56;2.30;;;1.77;;
46363;SDS011;32071;49.036;9.344;2023-05-10T02:19:23;2.00;;;1.80;;
46363;SDS011;32071;49.036;9.344;2023-05-10T02:21:50;2.47;;;2.27;;
46363;SDS011;32071;49.036;9.344;2023-05-10T02:24:17;1.47;;;1.37;;
46363;SDS011;32071;49.036;9.344;2023-05-10T02:26:44;5.53;;;2.33;;
46363;SDS011;32071;49.036;9.344;2023-05-10T02:29:12;2.00;;;1.90;;
46363;SDS011;32071;49.036;9.344;2023-05-10T02:31:39;2.43;;;2.23;;
46363;SDS011;32071;49.036;9.344;2023-05-10T02:34:05;2.27;;;1.70;;
46363;SDS011;32071;49.036;9.344;2023-05-10T02:36:32;1.70;;;1.60;;
46363;SDS011;32071;49.036;9.344;2023-05-10T02:38:58;1.93;;;1.60;;
46363;SDS011;32071;49.036;9.344;2023-05-10T02:41:26;3.13;;;1.83;;
46363;SDS011;32071;49.036;9.344;2023-05-10T02:43:56;1.73;;;1.63;;
46363;SDS011;32071;49.036;9.344;2023-05-10T02:46:24;2.40;;;1.73;;
46363;SDS011;32071;49.036;9.344;2023-05-10T02:48:50;1.60;;;1.50;;
46363;SDS011;32071;49.036;9.344;2023-05-10T02:51:16;2.47;;;1.70;;
46363;SDS011;32071;49.036;9.344;2023-05-10T02:53:43;1.93;;;1.83;;
46363;SDS011;32071;49.036;9.344;2023-05-10T02:56:12;2.33;;;1.83;;
46363;SDS011;32071;49.036;9.344;2023-05-10T02:58:45;2.50;;;2.00;;
46363;SDS011;32071;49.036;9.344;2023-05-10T03:01:11;2.17;;;1.97;;
46363;SDS011;32071;49.036;9.344;2023-05-10T03:03:36;1.87;;;1.77;;
46363;SDS011;32071;49.036;9.344;2023-05-10T03:06:02;1.73;;;1.63;;
46363;SDS011;32071;49.036;9.344;2023-05-10T03:08:28;7.10;;;3.60;;
46363;SDS011;32071;49.036;9.344;2023-05-10T03:10:58;2.07;;;1.90;;
46363;SDS011;32071;49.036;9.344;2023-05-10T03:13:39;3.13;;;2.83;;
46363;SDS011;32071;49.036;9.344;2023-05-10T03:16:35;3.20;;;2.90;;
46363;SDS011;32071;49.036;9.344;2023-05-10T03:19:17;3.73;;;2.57;;
46363;SDS011;32071;49.036;9.344;2023-05-10T03:21:52;3.67;;;3.30;;
46363;SDS011;32071;49.036;9.344;2023-05-10T03:24:20;3.20;;;2.90;;
46363;SDS011;32071;49.036;9.344;2023-05-10T03:26:48;3.40;;;2.80;;
46363;SDS011;32071;49.036;9.344;2023-05-10T03:29:15;3.03;;;2.77;;
46363;SDS011;32071;49.036;9.344;2023-05-10T03:31:42;2.93;;;2.73;;
46363;SDS011;32071;49.036;9.344;2023-05-10T03:34:07;2.70;;;2.50;;
46363;SDS011;32071;49.036;9.344;2023-05-10T03:36:33;3.03;;;2.40;;
46363;SDS011;32071;49.036;9.344;2023-05-10T03:38:58;2.60;;;2.40;;
46363;SDS011;32071;49.036;9.344;2023-05-10T03:41:24;4.43;;;2.70;;
46363;SDS011;32071;49.036;9.344;2023-05-10T03:43:50;3.40;;;3.10;;
46363;SDS011;32071;49.036;9.344;2023-05-10T03:46:16;4.07;;;2.60;;
46363;SDS011;32071;49.036;9.344;2023-05-10T03:48:42;2.70;;;2.50;;
46363;SDS011;32071;49.036;9.344;2023-05-10T03:51:07;4.00;;;3.13;;
46363;SDS011;32071;49.036;9.344;2023-05-10T03:53:33;3.37;;;3.07;;
46363;SDS011;32071;49.036;9.344;2023-05-10T03:55:58;4.50;;;2.90;;
46363;SDS011;32071;49.036;9.344;2023-05-10T03:58:24;3.83;;;3.23;;
46363;SDS011;32071;49.036;9.344;2023-05-10T04:00:50;4.13;;;3.20;;
46363;SDS011;32071;49.036;9.344;2023-05-10T04:03:16;4.03;;;3.63;;
46363;SDS011;32071;49.036;9.344;2023-05-10T04:05:42;5.47;;;3.80;;
46363;SDS011;32071;49.036;9.344;2023-05-10T04:08:08;4.40;;;3.60;;
46363;SDS011;32071;49.036;9.344;2023-05-10T04:10:33;4.13;;;3.63;;
46363;SDS011;32071;49.036;9.344;2023-05-10T04:12:59;6.77;;;4.97;;
46363;SDS011;32071;49.036;9.344;2023-05-10T04:15:25;5.27;;;3.87;;
46363;SDS011;32071;49.036;9.344;2023-05-10T04:17:50;6.37;;;4.53;;
46363;SDS011;32071;49.036;9.344;2023-05-10T04:20:16;4.87;;;4.37;;
46363;SDS011;32071;49.036;9.344;2023-05-10T04:22:42;5.20;;;4.47;;
46363;SDS011;32071;49.036;9.344;2023-05-10T04:25:07;5.13;;;4.40;;
46363;SDS011;32071;49.036;9.344;2023-05-10T04:27:33;5.70;;;4.73;;
46363;SDS011;32071;49.036;9.344;2023-05-10T04:29:59;4.90;;;4.40;;
46363;SDS011;32071;49.036;9.344;2023-05-10T04:32:24;7.37;;;5.10;;
46363;SDS011;32071;49.036;9.344;2023-05-10T04:34:50;5.80;;;4.93;;
46363;SDS011;32071;49.036;9.344;2023-05-10T04:37:17;5.37;;;4.27;;
46363;SDS011;32071;49.036;9.344;2023-05-10T04:39:42;5.43;;;4.67;;
46363;SDS011;32071;49.036;9.344;2023-05-10T04:42:08;6.20;;;4.47;;
46363;SDS011;32071;49.036;9.344;2023-05-10T04:44:34;6.47;;;4.30;;
46363;SDS011;32071;49.036;9.344;2023-05-10T04:47:00;6.10;;;5.27;;
46363;SDS011;32071;49.036;9.344;2023-05-10T04:49:27;6.07;;;5.10;;
46363;SDS011;32071;49.036;9.344;2023-05-10T04:51:53;6.27;;;5.57;;
46363;SDS011;32071;49.036;9.344;2023-05-10T04:54:18;6.50;;;5.03;;
46363;SDS011;32071;49.036;9.344;2023-05-10T04:56:44;6.10;;;5.17;;
46363;SDS011;32071;49.036;9.344;2023-05-10T04:59:09;6.70;;;5.63;;
46363;SDS011;32071;49.036;9.344;2023-05-10T05:01:35;7.20;;;5.60;;
46363;SDS011;32071;49.036;9.344;2023-05-10T05:04:01;6.47;;;5.50;;
46363;SDS011;32071;49.036;9.344;2023-05-10T05:06:26;5.60;;;4.97;;
46363;SDS011;32071;49.036;9.344;2023-05-10T05:08:52;7.63;;;5.63;;
46363;SDS011;32071;49.036;9.344;2023-05-10T05:11:17;7.30;;;5.67;;
46363;SDS011;32071;49.036;9.344;2023-05-10T05:13:43;7.97;;;6.30;;
46363;SDS011;32071;49.036;9.344;2023-05-10T05:16:09;9.73;;;7.60;;
46363;SDS011;32071;49.036;9.344;2023-05-10T05:18:35;7.10;;;5.73;;
46363;SDS011;32071;49.036;9.344;2023-05-10T05:21:01;9.63;;;7.87;;
46363;SDS011;32071;49.036;9.344;2023-05-10T05:23:27;7.87;;;5.90;;
46363;SDS011;32071;49.036;9.344;2023-05-10T05:25:52;9.57;;;6.87;;
46363;SDS011;32071;49.036;9.344;2023-05-10T05:28:19;10.03;;;5.77;;
46363;SDS011;32071;49.036;9.344;2023-05-10T05:30:45;7.57;;;6.80;;
46363;SDS011;32071;49.036;9.344;2023-05-10T05:33:11;7.67;;;6.73;;
46363;SDS011;32071;49.036;9.344;2023-05-10T05:35:38;9.27;;;6.50;;
46363;SDS011;32071;49.036;9.344;2023-05-10T05:38:04;6.80;;;5.90;;
46363;SDS011;32071;49.036;9.344;2023-05-10T05:40:29;5.53;;;4.60;;
46363;SDS011;32071;49.036;9.344;2023-05-10T05:42:55;4.93;;;4.43;;
46363;SDS011;32071;49.036;9.344;2023-05-10T05:45:20;4.60;;;4.00;;
46363;SDS011;32071;49.036;9.344;2023-05-10T05:47:46;6.13;;;4.50;;
46363;SDS011;32071;49.036;9.344;2023-05-10T05:50:12;4.67;;;4.17;;
46363;SDS011;32071;49.036;9.344;2023-05-10T05:52:37;3.90;;;3.50;;
46363;SDS011;32071;49.036;9.344;2023-05-10T05:55:03;3.40;;;3.10;;
46363;SDS011;32071;49.036;9.344;2023-05-10T05:57:29;5.73;;;4.23;;
46363;SDS011;32071;49.036;9.344;2023-05-10T05:59:54;4.00;;;3.60;;
46363;SDS011;32071;49.036;9.344;2023-05-10T06:02:20;6.43;;;4.10;;
46363;SDS011;32071;49.036;9.344;2023-05-10T06:04:46;3.80;;;3.50;;
46363;SDS011;32071;49.036;9.344;2023-05-10T06:07:11;4.73;;;3.97;;
46363;SDS011;32071;49.036;9.344;2023-05-10T06:09:37;4.50;;;4.00;;
46363;SDS011;32071;49.036;9.344;2023-05-10T06:12:03;3.63;;;3.27;;
46363;SDS011;32071;49.036;9.344;2023-05-10T06:14:28;4.37;;;3.70;;
46363;SDS011;32071;49.036;9.344;2023-05-10T06:16:54;4.93;;;3.40;;
46363;SDS011;32071;49.036;9.344;2023-05-10T06:19:20;4.60;;;4.20;;
46363;SDS011;32071;49.036;9.344;2023-05-10T06:21:45;3.43;;;3.13;;
46363;SDS011;32071;49.036;9.344;2023-05-10T06:24:11;4.10;;;3.60;;
46363;SDS011;32071;49.036;9.344;2023-05-10T06:26:36;3.97;;;3.60;;
46363;SDS011;32071;49.036;9.344;2023-05-10T06:29:02;4.40;;;3.80;;
46363;SDS011;32071;49.036;9.344;2023-05-10T06:31:27;4.20;;;3.80;;
46363;SDS011;32071;49.036;9.344;2023-05-10T06:33:53;5.00;;;4.43;;
46363;SDS011;32071;49.036;9.344;2023-05-10T06:36:18;5.40;;;4.70;;
46363;SDS011;32071;49.036;9.344;2023-05-10T06:38:44;6.30;;;4.50;;
46363;SDS011;32071;49.036;9.344;2023-05-10T06:41:09;4.83;;;4.33;;
46363;SDS011;32071;49.036;9.344;2023-05-10T06:43:35;4.53;;;4.13;;
46363;SDS011;32071;49.036;9.344;2023-05-10T06:46:04;5.30;;;4.00;;
46363;SDS011;32071;49.036;9.344;2023-05-10T06:48:30;6.10;;;4.20;;
46363;SDS011;32071;49.036;9.344;2023-05-10T06:50:56;4.50;;;4.10;;
46363;SDS011;32071;49.036;9.344;2023-05-10T06:53:21;3.70;;;3.40;;
46363;SDS011;32071;49.036;9.344;2023-05-10T06:55:48;4.50;;;4.10;;
46363;SDS011;32071;49.036;9.344;2023-05-10T06:58:14;4.30;;;3.90;;
46363;SDS011;32071;49.036;9.344;2023-05-10T07:00:40;6.07;;;4.57;;
46363;SDS011;32071;49.036;9.344;2023-05-10T07:03:08;5.00;;;4.50;;
46363;SDS011;32071;49.036;9.344;2023-05-10T07:05:34;5.43;;;4.93;;
46363;SDS011;32071;49.036;9.344;2023-05-10T07:08:00;5.47;;;4.97;;
46363;SDS011;32071;49.036;9.344;2023-05-10T07:10:26;5.70;;;5.00;;
46363;SDS011;32071;49.036;9.344;2023-05-10T07:12:51;5.67;;;4.67;;
46363;SDS011;32071;49.036;9.344;2023-05-10T07:15:17;4.73;;;4.30;;
46363;SDS011;32071;49.036;9.344;2023-05-10T07:17:43;5.50;;;4.60;;
46363;SDS011;32071;49.036;9.344;2023-05-10T07:20:08;7.10;;;4.40;;
46363;SDS011;32071;49.036;9.344;2023-05-10T07:22:34;4.67;;;3.87;;
46363;SDS011;32071;49.036;9.344;2023-05-10T07:24:59;4.23;;;3.80;;
46363;SDS011;32071;49.036;9.344;2023-05-10T07:27:25;3.83;;;3.30;;
46363;SDS011;32071;49.036;9.344;2023-05-10T07:29:51;4.00;;;3.60;;
46363;SDS011;32071;49.036;9.344;2023-05-10T07:32:16;3.43;;;2.73;;
46363;SDS011;32071;49.036;9.344;2023-05-10T07:34:42;2.70;;;2.50;;
46363;SDS011;32071;49.036;9.344;2023-05-10T07:37:08;3.83;;;2.60;;
46363;SDS011;32071;49.036;9.344;2023-05-10T07:39:33;4.60;;;3.13;;
46363;SDS011;32071;49.036;9.344;2023-05-10T07:41:59;3.47;;;3.17;;
46363;SDS011;32071;49.036;9.344;2023-05-10T07:44:24;2.90;;;2.67;;
46363;SDS011;32071;49.036;9.344;2023-05-10T07:46:50;2.40;;;2.20;;
46363;SDS011;32071;49.036;9.344;2023-05-10T07:49:16;3.30;;;2.50;;
46363;SDS011;32071;49.036;9.344;2023-05-10T07:51:41;2.60;;;2.40;;
46363;SDS011;32071;49.036;9.344;2023-05-10T07:54:07;3.53;;;2.57;;
46363;SDS011;32071;49.036;9.344;2023-05-10T07:56:33;4.03;;;2.97;;
46363;SDS011;32071;49.036;9.344;2023-05-10T07:58:59;2.50;;;2.30;;
46363;SDS011;32071;49.036;9.344;2023-05-10T08:01:25;2.10;;;2.00;;
46363;SDS011;32071;49.036;9.344;2023-05-10T08:03:52;3.17;;;2.47;;
46363;SDS011;32071;49.036;9.344;2023-05-10T08:06:18;2.40;;;2.20;;
46363;SDS011;32071;49.036;9.344;2023-05-10T08:08:48;2.43;;;2.10;;
46363;SDS011;32071;49.036;9.344;2023-05-10T08:11:18;2.07;;;1.93;;
46363;SDS011;32071;49.036;9.344;2023-05-10T08:13:45;3.07;;;2.20;;
46363;SDS011;32071;49.036;9.344;2023-05-10T08:16:12;2.40;;;2.20;;
46363;SDS011;32071;49.036;9.344;2023-05-10T08:18:38;2.20;;;2.00;;
46363;SDS011;32071;49.036;9.344;2023-05-10T08:21:04;1.93;;;1.83;;
46363;SDS011;32071;49.036;9.344;2023-05-10T08:23:30;2.37;;;2.17;;
46363;SDS011;32071;49.036;9.344;2023-05-10T08:25:55;2.50;;;2.30;;
46363;SDS011;32071;49.036;9.344;2023-05-10T08:28:21;3.60;;;2.47;;
46363;SDS011;32071;49.036;9.344;2023-05-10T08:30:46;1.70;;;1.60;;
46363;SDS011;32071;49.036;9.344;2023-05-10T08:33:12;2.13;;;2.00;;
46363;SDS011;32071;49.036;9.344;2023-05-10T08:35:38;2.00;;;1.90;;
46363;SDS011;32071;49.036;9.344;2023-05-10T08:38:03;1.70;;;1.60;;
46363;SDS011;32071;49.036;9.344;2023-05-10T08:40:29;1.80;;;1.70;;
46363;SDS011;32071;49.036;9.344;2023-05-10T08:43:11;1.63;;;1.53;;
46363;SDS011;32071;49.036;9.344;2023-05-10T08:45:38;1.37;;;1.27;;
46363;SDS011;32071;49.036;9.344;2023-05-10T08:48:06;1.63;;;1.53;;
46363;SDS011;32071;49.036;9.344;2023-05-10T08:50:39;1.63;;;1.40;;
46363;SDS011;32071;49.036;9.344;2023-05-10T08:53:10;1.67;;;1.57;;
46363;SDS011;32071;49.036;9.344;2023-05-10T08:55:37;1.53;;;1.43;;
46363;SDS011;32071;49.036;9.344;2023-05-10T08:58:07;1.40;;;1.30;;
46363;SDS011;32071;49.036;9.344;2023-05-10T09:00:33;2.30;;;1.70;;
46363;SDS011;32071;49.036;9.344;2023-05-10T09:03:00;1.40;;;1.30;;
46363;SDS011;32071;49.036;9.344;2023-05-10T09:05:26;1.60;;;1.30;;
46363;SDS011;32071;49.036;9.344;2023-05-10T09:07:52;1.87;;;1.40;;
46363;SDS011;32071;49.036;9.344;2023-05-10T09:10:18;1.53;;;1.40;;
46363;SDS011;32071;49.036;9.344;2023-05-10T09:12:44;1.53;;;1.43;;
46363;SDS011;32071;49.036;9.344;2023-05-10T09:15:10;1.70;;;1.60;;
46363;SDS011;32071;49.036;9.344;2023-05-10T09:17:39;1.63;;;1.30;;
46363;SDS011;32071;49.036;9.344;2023-05-10T09:20:06;1.60;;;1.50;;
46363;SDS011;32071;49.036;9.344;2023-05-10T09:22:32;1.90;;;1.80;;
46363;SDS011;32071;49.036;9.344;2023-05-10T09:27:31;1.33;;;1.23;;
46363;SDS011;32071;49.036;9.344;2023-05-10T09:29:57;1.70;;;1.60;;
46363;SDS011;32071;49.036;9.344;2023-05-10T09:32:35;1.60;;;1.50;;
46363;SDS011;32071;49.036;9.344;2023-05-10T09:35:08;1.60;;;1.50;;
46363;SDS011;32071;49.036;9.344;2023-05-10T09:37:42;3.33;;;1.70;;
46363;SDS011;32071;49.036;9.344;2023-05-10T09:40:16;1.67;;;1.57;;
46363;SDS011;32071;49.036;9.344;2023-05-10T09:42:59;1.80;;;1.53;;
46363;SDS011;32071;49.036;9.344;2023-05-10T09:45:34;1.53;;;1.43;;
46363;SDS011;32071;49.036;9.344;2023-05-10T09:48:00;4.93;;;1.80;;
46363;SDS011;32071;49.036;9.344;2023-05-10T09:50:27;1.70;;;1.60;;
46363;SDS011;32071;49.036;9.344;2023-05-10T09:52:57;1.53;;;1.30;;
46363;SDS011;32071;49.036;9.344;2023-05-10T09:55:25;2.30;;;1.40;;
46363;SDS011;32071;49.036;9.344;2023-05-10T09:58:04;1.60;;;1.43;;
46363;SDS011;32071;49.036;9.344;2023-05-10T10:00:34;1.70;;;1.57;;
46363;SDS011;32071;49.036;9.344;2023-05-10T10:03:01;3.20;;;1.60;;
46363;SDS011;32071;49.036;9.344;2023-05-10T10:05:31;1.40;;;1.30;;
46363;SDS011;32071;49.036;9.344;2023-05-10T10:07:58;1.73;;;1.63;;
46363;SDS011;32071;49.036;9.344;2023-05-10T10:10:25;1.50;;;1.40;;
46363;SDS011;32071;49.036;9.344;2023-05-10T10:12:52;1.80;;;1.50;;
46363;SDS011;32071;49.036;9.344;2023-05-10T10:15:18;2.07;;;1.80;;
46363;SDS011;32071;49.036;9.344;2023-05-10T10:17:45;1.73;;;1.33;;
46363;SDS011;32071;49.036;9.344;2023-05-10T10:20:11;1.50;;;1.40;;
46363;SDS011;32071;49.036;9.344;2023-05-10T10:22:37;2.83;;;2.00;;
46363;SDS011;32071;49.036;9.344;2023-05-10T10:25:03;1.40;;;1.40;;
46363;SDS011;32071;49.036;9.344;2023-05-10T10:27:39;2.03;;;1.93;;
46363;SDS011;32071;49.036;9.344;2023-05-10T10:30:27;1.80;;;1.70;;
46363;SDS011;32071;49.036;9.344;2023-05-10T10:35:55;1.47;;;1.27;;
46363;SDS011;32071;49.036;9.344;2023-05-10T10:38:24;1.20;;;1.17;;
46363;SDS011;32071;49.036;9.344;2023-05-10T10:41:01;2.30;;;1.50;;
46363;SDS011;32071;49.036;9.344;2023-05-10T10:43:27;2.20;;;1.73;;
46363;SDS011;32071;49.036;9.344;2023-05-10T10:48:39;2.80;;;1.70;;
46363;SDS011;32071;49.036;9.344;2023-05-10T10:51:06;4.63;;;2.30;;
46363;SDS011;32071;49.036;9.344;2023-05-10T10:53:33;8.50;;;4.53;;
46363;SDS011;32071;49.036;9.344;2023-05-10T10:56:04;2.67;;;2.47;;
46363;SDS011;32071;49.036;9.344;2023-05-10T10:58:33;2.60;;;2.37;;
46363;SDS011;32071;49.036;9.344;2023-05-10T11:01:09;2.80;;;2.60;;
46363;SDS011;32071;49.036;9.344;2023-05-10T11:03:37;2.40;;;2.20;;
46363;SDS011;32071;49.036;9.344;2023-05-10T11:06:02;4.63;;;2.17;;
46363;SDS011;32071;49.036;9.344;2023-05-10T11:08:29;2.40;;;2.20;;
46363;SDS011;32071;49.036;9.344;2023-05-10T11:18:51;2.40;;;2.03;;
46363;SDS011;32071;49.036;9.344;2023-05-10T11:21:27;2.63;;;2.07;;
46363;SDS011;32071;49.036;9.344;2023-05-10T11:23:54;2.33;;;1.70;;
46363;SDS011;32071;49.036;9.344;2023-05-10T11:26:21;2.60;;;1.70;;
46363;SDS011;32071;49.036;9.344;2023-05-10T11:28:50;1.87;;;1.77;;
46363;SDS011;32071;49.036;9.344;2023-05-10T11:31:18;3.00;;;1.87;;
46363;SDS011;32071;49.036;9.344;2023-05-10T11:33:45;1.40;;;1.30;;
46363;SDS011;32071;49.036;9.344;2023-05-10T11:36:16;1.50;;;1.40;;
46363;SDS011;32071;49.036;9.344;2023-05-10T11:38:43;1.40;;;1.33;;
46363;SDS011;32071;49.036;9.344;2023-05-10T11:41:09;1.97;;;1.40;;
46363;SDS011;32071;49.036;9.344;2023-05-10T11:43:36;1.27;;;1.17;;
46363;SDS011;32071;49.036;9.344;2023-05-10T11:46:04;1.30;;;1.20;;
46363;SDS011;32071;49.036;9.344;2023-05-10T11:48:36;2.10;;;1.60;;
46363;SDS011;32071;49.036;9.344;2023-05-10T11:51:09;1.73;;;1.63;;
46363;SDS011;32071;49.036;9.344;2023-05-10T11:53:36;1.80;;;1.50;;
46363;SDS011;32071;49.036;9.344;2023-05-10T11:56:06;2.00;;;1.57;;
46363;SDS011;32071;49.036;9.344;2023-05-10T11:58:33;1.87;;;1.77;;
46363;SDS011;32071;49.036;9.344;2023-05-10T12:00:59;2.57;;;1.73;;
46363;SDS011;32071;49.036;9.344;2023-05-10T12:03:26;2.87;;;1.50;;
46363;SDS011;32071;49.036;9.344;2023-05-10T12:05:53;5.30;;;2.07;;
46363;SDS011;32071;49.036;9.344;2023-05-10T12:08:20;1.90;;;1.60;;
46363;SDS011;32071;49.036;9.344;2023-05-10T12:10:47;3.70;;;1.40;;
46363;SDS011;32071;49.036;9.344;2023-05-10T12:13:13;1.50;;;1.40;;
46363;SDS011;32071;49.036;9.344;2023-05-10T12:15:40;1.70;;;1.60;;
46363;SDS011;32071;49.036;9.344;2023-05-10T12:18:09;3.20;;;1.80;;
46363;SDS011;32071;49.036;9.344;2023-05-10T12:20:39;1.77;;;1.67;;
46363;SDS011;32071;49.036;9.344;2023-05-10T12:23:05;2.27;;;2.07;;
46363;SDS011;32071;49.036;9.344;2023-05-10T12:25:33;2.40;;;1.97;;
46363;SDS011;32071;49.036;9.344;2023-05-10T12:28:02;2.00;;;1.90;;
46363;SDS011;32071;49.036;9.344;2023-05-10T12:30:30;2.43;;;1.70;;
46363;SDS011;32071;49.036;9.344;2023-05-10T12:33:12;2.10;;;1.73;;
46363;SDS011;32071;49.036;9.344;2023-05-10T12:38:34;2.00;;;1.63;;
46363;SDS011;32071;49.036;9.344;2023-05-10T12:41:03;3.23;;;1.93;;
46363;SDS011;32071;49.036;9.344;2023-05-10T12:43:30;3.17;;;1.73;;
46363;SDS011;32071;49.036;9.344;2023-05-10T12:45:56;1.97;;;1.87;;
46363;SDS011;32071;49.036;9.344;2023-05-10T12:48:22;3.17;;;2.60;;
46363;SDS011;32071;49.036;9.344;2023-05-10T12:50:48;2.60;;;2.30;;
46363;SDS011;32071;49.036;9.344;2023-05-10T12:53:14;4.13;;;2.80;;
46363;SDS011;32071;49.036;9.344;2023-05-10T12:55:43;3.47;;;2.70;;
46363;SDS011;32071;49.036;9.344;2023-05-10T12:58:09;2.30;;;2.10;;
46363;SDS011;32071;49.036;9.344;2023-05-10T13:00:34;4.40;;;2.67;;
46363;SDS011;32071;49.036;9.344;2023-05-10T13:03:02;2.07;;;1.83;;
46363;SDS011;32071;49.036;9.344;2023-05-10T13:05:32;2.30;;;2.20;;
46363;SDS011;32071;49.036;9.344;2023-05-10T13:07:57;2.00;;;1.90;;
46363;SDS011;32071;49.036;9.344;2023-05-10T13:10:23;3.27;;;1.83;;
46363;SDS011;32071;49.036;9.344;2023-05-10T13:12:50;6.30;;;1.90;;
46363;SDS011;32071;49.036;9.344;2023-05-10T13:15:15;2.53;;;1.90;;
46363;SDS011;32071;49.036;9.344;2023-05-10T13:17:41;4.43;;;1.90;;
46363;SDS011;32071;49.036;9.344;2023-05-10T13:20:07;3.60;;;2.00;;
46363;SDS011;32071;49.036;9.344;2023-05-10T13:22:34;6.80;;;2.20;;
46363;SDS011;32071;49.036;9.344;2023-05-10T13:25:00;3.10;;;2.03;;
46363;SDS011;32071;49.036;9.344;2023-05-10T13:27:26;3.43;;;2.20;;
46363;SDS011;32071;49.036;9.344;2023-05-10T13:29:51;5.00;;;2.37;;
46363;SDS011;32071;49.036;9.344;2023-05-10T13:32:17;6.03;;;3.07;;
46363;SDS011;32071;49.036;9.344;2023-05-10T13:34:42;3.00;;;2.37;;
46363;SDS011;32071;49.036;9.344;2023-05-10T13:37:09;2.27;;;2.07;;
46363;SDS011;32071;49.036;9.344;2023-05-10T13:39:34;8.47;;;2.30;;
46363;SDS011;32071;49.036;9.344;2023-05-10T13:42:02;2.93;;;2.43;;
46363;SDS011;32071;49.036;9.344;2023-05-10T13:44:28;5.60;;;2.40;;
46363;SDS011;32071;49.036;9.344;2023-05-10T13:46:54;4.83;;;1.87;;
46363;SDS011;32071;49.036;9.344;2023-05-10T13:49:20;2.00;;;1.90;;
46363;SDS011;32071;49.036;9.344;2023-05-10T13:51:46;1.77;;;1.67;;
46363;SDS011;32071;49.036;9.344;2023-05-10T13:54:12;2.83;;;2.37;;
46363;SDS011;32071;49.036;9.344;2023-05-10T13:56:38;2.60;;;2.00;;
46363;SDS011;32071;49.036;9.344;2023-05-10T13:59:05;5.13;;;2.30;;
46363;SDS011;32071;49.036;9.344;2023-05-10T14:01:31;2.60;;;2.40;;
46363;SDS011;32071;49.036;9.344;2023-05-10T14:03:56;1.70;;;1.60;;
46363;SDS011;32071;49.036;9.344;2023-05-10T14:06:22;4.07;;;2.20;;
46363;SDS011;32071;49.036;9.344;2023-05-10T14:08:48;4.47;;;2.30;;
46363;SDS011;32071;49.036;9.344;2023-05-10T14:11:13;3.23;;;2.40;;
46363;SDS011;32071;49.036;9.344;2023-05-10T14:13:39;3.20;;;2.40;;
46363;SDS011;32071;49.036;9.344;2023-05-10T14:16:04;2.97;;;2.23;;
46363;SDS011;32071;49.036;9.344;2023-05-10T14:18:30;2.00;;;1.90;;
46363;SDS011;32071;49.036;9.344;2023-05-10T14:20:56;2.40;;;2.20;;
46363;SDS011;32071;49.036;9.344;2023-05-10T14:23:22;4.30;;;2.27;;
46363;SDS011;32071;49.036;9.344;2023-05-10T14:25:51;2.23;;;2.13;;
46363;SDS011;32071;49.036;9.344;2023-05-10T14:28:17;1.67;;;1.57;;
46363;SDS011;32071;49.036;9.344;2023-05-10T14:30:43;6.10;;;2.10;;
46363;SDS011;32071;49.036;9.344;2023-05-10T14:33:09;1.87;;;1.77;;
46363;SDS011;32071;49.036;9.344;2023-05-10T14:35:35;1.73;;;1.60;;
46363;SDS011;32071;49.036;9.344;2023-05-10T14:38:01;1.57;;;1.47;;
46363;SDS011;32071;49.036;9.344;2023-05-10T14:40:28;1.37;;;1.37;;
46363;SDS011;32071;49.036;9.344;2023-05-10T14:42:54;2.03;;;1.93;;
46363;SDS011;32071;49.036;9.344;2023-05-10T14:45:20;1.77;;;1.60;;
46363;SDS011;32071;49.036;9.344;2023-05-10T14:47:45;2.53;;;1.70;;
46363;SDS011;32071;49.036;9.344;2023-05-10T14:50:11;1.63;;;1.53;;
46363;SDS011;32071;49.036;9.344;2023-05-10T14:52:37;1.37;;;1.27;;
46363;SDS011;32071;49.036;9.344;2023-05-10T14:55:02;2.90;;;1.70;;
46363;SDS011;32071;49.036;9.344;2023-05-10T14:57:28;2.07;;;1.70;;
46363;SDS011;32071;49.036;9.344;2023-05-10T14:59:55;1.53;;;1.43;;
46363;SDS011;32071;49.036;9.344;2023-05-10T15:02:21;4.03;;;1.77;;
46363;SDS011;32071;49.036;9.344;2023-05-10T15:04:47;1.50;;;1.40;;
46363;SDS011;32071;49.036;9.344;2023-05-10T15:07:12;1.40;;;1.30;;
46363;SDS011;32071;49.036;9.344;2023-05-10T15:09:41;1.60;;;1.20;;
46363;SDS011;32071;49.036;9.344;2023-05-10T15:12:06;3.13;;;1.43;;
46363;SDS011;32071;49.036;9.344;2023-05-10T15:14:32;1.57;;;1.47;;
46363;SDS011;32071;49.036;9.344;2023-05-10T15:16:58;4.13;;;2.90;;
46363;SDS011;32071;49.036;9.344;2023-05-10T15:19:24;3.10;;;2.20;;
46363;SDS011;32071;49.036;9.344;2023-05-10T15:21:49;1.93;;;1.80;;